createdAt,value
2019-01-18T00:01:23.882Z,1.83
2019-01-18T00:04:27.920Z,2.10
2019-01-18T00:07:31.756Z,2.07
2019-01-18T00:10:36.971Z,1.80
2019-01-18T00:13:41.006Z,1.93
2019-01-18T00:16:45.408Z,2.53
2019-01-18T00:19:52.188Z,1.93
2019-01-18T00:22:56.142Z,1.70
2019-01-18T00:26:00.135Z,2.10
2019-01-18T00:29:04.144Z,1.93
2019-01-18T00:32:08.464Z,1.70
2019-01-18T00:35:12.477Z,2.00
2019-01-18T00:38:20.696Z,1.90
2019-01-18T00:41:24.856Z,1.50
2019-01-18T00:44:29.080Z,1.70
2019-01-18T00:47:33.566Z,1.80
2019-01-18T00:50:37.796Z,2.23
2019-01-18T00:53:41.720Z,1.87
2019-01-18T00:56:45.652Z,1.70
2019-01-18T00:59:49.648Z,2.10
2019-01-18T01:02:53.854Z,1.90
2019-01-18T01:05:59.225Z,1.87
2019-01-18T01:09:03.370Z,2.00
2019-01-18T01:12:08.663Z,1.77
2019-01-18T01:15:15.772Z,1.50
2019-01-18T01:18:19.672Z,1.80
2019-01-18T01:21:23.798Z,2.80
2019-01-18T01:24:28.441Z,1.77
2019-01-18T01:27:32.357Z,1.63
2019-01-18T01:30:36.388Z,1.67
2019-01-18T01:33:40.252Z,2.43
2019-01-18T01:36:45.655Z,2.30
2019-01-18T01:39:49.509Z,1.73
2019-01-18T01:42:53.727Z,1.33
2019-01-18T01:45:59.038Z,1.40
2019-01-18T01:49:02.927Z,2.03
2019-01-18T01:52:07.233Z,1.60
2019-01-18T01:55:11.333Z,1.53
2019-01-18T01:58:15.171Z,1.30
2019-01-18T02:01:19.096Z,1.70
2019-01-18T02:04:23.018Z,1.73
2019-01-18T02:07:27.170Z,1.60
2019-01-18T02:10:33.281Z,1.53
2019-01-18T02:13:41.168Z,1.23
2019-01-18T02:16:45.092Z,1.70
2019-01-18T02:19:49.022Z,1.67
2019-01-18T02:22:53.321Z,1.53
2019-01-18T02:25:57.277Z,1.60
2019-01-18T02:29:01.329Z,1.80
2019-01-18T02:32:05.548Z,1.73
2019-01-18T02:35:09.967Z,1.90
2019-01-18T02:38:17.430Z,1.90
2019-01-18T02:41:21.408Z,1.43
2019-01-18T02:44:25.337Z,1.60
2019-01-18T02:47:29.336Z,1.50
2019-01-18T02:50:33.225Z,1.47
2019-01-18T02:53:37.169Z,1.50
2019-01-18T02:56:42.698Z,1.60
2019-01-18T02:59:46.550Z,1.53
2019-01-18T03:02:50.662Z,1.57
2019-01-18T03:05:54.664Z,1.50
2019-01-18T03:08:58.602Z,1.50
2019-01-18T03:12:02.619Z,1.50
2019-01-18T03:15:06.964Z,1.60
2019-01-18T03:18:13.078Z,1.80
2019-01-18T03:21:17.345Z,1.63
2019-01-18T03:24:21.279Z,1.80
2019-01-18T03:27:25.305Z,1.80
2019-01-18T03:30:29.247Z,1.60
2019-01-18T03:33:33.101Z,1.53
2019-01-18T03:36:37.111Z,1.80
2019-01-18T03:39:41.022Z,1.50
2019-01-18T03:42:45.151Z,1.30
2019-01-18T03:45:49.005Z,1.67
2019-01-18T03:48:52.690Z,1.60
2019-01-18T03:51:56.520Z,1.30
2019-01-18T03:55:00.512Z,1.70
2019-01-18T03:58:04.632Z,1.87
2019-01-18T04:01:08.585Z,1.83
2019-01-18T04:04:12.575Z,1.80
2019-01-18T04:07:16.595Z,1.50
2019-01-18T04:10:20.646Z,1.80
2019-01-18T04:13:24.500Z,1.77
2019-01-18T04:16:29.063Z,1.80
2019-01-18T04:19:33.129Z,1.83
2019-01-18T04:22:37.051Z,1.60
2019-01-18T04:25:41.173Z,1.93
2019-01-18T04:28:45.364Z,1.80
2019-01-18T04:31:49.216Z,1.50
2019-01-18T04:34:53.134Z,1.90
2019-01-18T04:37:57.367Z,1.80
2019-01-18T04:41:01.217Z,2.00
2019-01-18T04:44:05.627Z,1.70
2019-01-18T04:47:09.559Z,1.37
2019-01-18T04:50:15.810Z,1.60
2019-01-18T04:53:19.708Z,1.60
2019-01-18T04:56:23.614Z,1.57
2019-01-18T04:59:27.491Z,1.43
2019-01-18T05:02:31.389Z,1.70
2019-01-18T05:05:37.697Z,1.80
2019-01-18T05:08:44.961Z,1.60
2019-01-18T05:11:48.807Z,1.40
2019-01-18T05:14:52.951Z,1.50
2019-01-18T05:17:56.870Z,1.57
2019-01-18T05:21:00.741Z,1.47
2019-01-18T05:24:04.739Z,1.80
2019-01-18T05:27:11.398Z,1.60
2019-01-18T05:30:20.473Z,1.50
2019-01-18T05:33:24.409Z,1.30
2019-01-18T05:36:28.335Z,1.53
2019-01-18T05:39:32.258Z,1.27
2019-01-18T05:42:36.199Z,1.50
2019-01-18T05:45:43.152Z,1.43
2019-01-18T05:48:47.088Z,1.60
2019-01-18T05:51:51.072Z,1.40
2019-01-18T05:54:55.115Z,1.40
2019-01-18T05:57:58.988Z,1.00
2019-01-18T06:01:07.886Z,1.40
2019-01-18T06:04:11.901Z,0.93
2019-01-18T06:07:15.923Z,4.37
2019-01-18T06:10:19.844Z,1.40
2019-01-18T06:13:23.769Z,1.20
2019-01-18T06:16:27.736Z,1.30
2019-01-18T06:19:31.728Z,1.43
2019-01-18T06:22:35.676Z,1.30
2019-01-18T06:25:39.617Z,1.03
2019-01-18T06:28:43.548Z,1.30
2019-01-18T06:31:47.393Z,1.27
2019-01-18T06:34:51.374Z,1.33
2019-01-18T06:37:55.238Z,1.30
2019-01-18T06:41:07.588Z,1.57
2019-01-18T06:44:11.445Z,1.30
2019-01-18T06:47:19.659Z,2.20
2019-01-18T06:50:23.602Z,1.60
2019-01-18T06:53:27.505Z,1.60
2019-01-18T06:56:32.545Z,1.60
2019-01-18T06:59:36.471Z,1.63
2019-01-18T07:02:40.478Z,1.53
2019-01-18T07:05:44.499Z,1.20
2019-01-18T07:08:48.466Z,1.57
2019-01-18T07:11:52.491Z,1.37
2019-01-18T07:14:56.419Z,1.00
2019-01-18T07:18:00.333Z,2.90
2019-01-18T07:21:04.578Z,1.30
2019-01-18T07:24:08.591Z,1.00
2019-01-18T07:27:12.606Z,1.10
2019-01-18T07:30:19.129Z,1.13
2019-01-18T07:33:23.015Z,1.10
2019-01-18T07:36:27.193Z,1.10
2019-01-18T07:39:31.111Z,0.83
2019-01-18T07:42:35.073Z,1.20
2019-01-18T07:45:39.094Z,1.07
2019-01-18T07:48:42.951Z,1.47
2019-01-18T07:51:46.823Z,1.43
2019-01-18T07:54:50.685Z,1.03
2019-01-18T07:57:55.091Z,1.40
2019-01-18T08:00:59.281Z,1.40
2019-01-18T08:04:03.247Z,1.37
2019-01-18T08:07:07.363Z,1.40
2019-01-18T08:10:14.093Z,1.30
2019-01-18T08:13:18.024Z,2.60
2019-01-18T08:16:21.982Z,1.77
2019-01-18T08:19:25.856Z,1.70
2019-01-18T08:22:29.918Z,1.90
2019-01-18T08:25:34.833Z,2.60
2019-01-18T08:28:38.878Z,2.30
2019-01-18T08:31:42.926Z,2.43
2019-01-18T08:34:46.820Z,1.60
2019-01-18T08:37:50.840Z,2.37
2019-01-18T08:40:54.751Z,2.37
2019-01-18T08:43:58.664Z,2.13
2019-01-18T08:47:04.557Z,2.30
2019-01-18T08:50:11.690Z,1.97
2019-01-18T08:53:15.664Z,1.73
2019-01-18T08:56:19.628Z,1.33
2019-01-18T08:59:23.566Z,1.40
2019-01-18T09:02:27.806Z,1.50
2019-01-18T09:05:31.680Z,1.80
2019-01-18T09:08:35.850Z,1.60
2019-01-18T09:11:39.865Z,2.03
2019-01-18T09:14:43.774Z,1.63
2019-01-18T09:17:50.318Z,1.70
2019-01-18T09:20:53.578Z,1.53
2019-01-18T09:23:57.428Z,1.67
2019-01-18T09:27:01.451Z,1.90
2019-01-18T09:30:07.626Z,2.03
2019-01-18T09:33:11.695Z,1.40
2019-01-18T09:36:15.932Z,1.50
2019-01-18T09:39:19.864Z,2.20
2019-01-18T09:42:23.857Z,2.00
2019-01-18T09:45:28.178Z,1.93
2019-01-18T09:48:35.548Z,1.57
2019-01-18T09:51:39.443Z,2.00
2019-01-18T09:54:43.394Z,1.83
2019-01-18T09:57:47.394Z,1.93
2019-01-18T10:00:51.455Z,2.13
2019-01-18T10:03:55.493Z,1.70
2019-01-18T10:06:59.423Z,1.93
2019-01-18T10:10:05.697Z,2.10
2019-01-18T10:13:09.837Z,2.20
2019-01-18T10:16:14.351Z,1.67
2019-01-18T10:19:18.240Z,1.90
2019-01-18T10:22:22.333Z,1.70
2019-01-18T10:25:26.531Z,1.50
2019-01-18T10:28:32.818Z,2.20
2019-01-18T10:31:36.857Z,1.40
2019-01-18T10:34:40.793Z,1.93
2019-01-18T10:37:44.820Z,1.97
2019-01-18T10:40:48.677Z,2.10
2019-01-18T10:43:52.636Z,1.77
2019-01-18T10:46:56.635Z,2.23
2019-01-18T10:50:02.808Z,1.70
2019-01-18T10:53:06.845Z,1.97
2019-01-18T10:56:10.799Z,2.37
2019-01-18T10:59:14.705Z,2.23
2019-01-18T11:02:18.603Z,2.33
2019-01-18T11:05:23.851Z,1.90
2019-01-18T11:08:27.895Z,2.20
2019-01-18T11:11:31.769Z,1.97
2019-01-18T11:14:35.799Z,2.13
2019-01-18T11:17:42.831Z,2.00
2019-01-18T11:21:03.438Z,2.07
2019-01-18T11:24:07.449Z,1.70
2019-01-18T11:27:11.318Z,1.60
2019-01-18T11:30:16.155Z,1.30
2019-01-18T11:33:20.027Z,2.77
2019-01-18T11:36:24.369Z,1.37
2019-01-18T11:39:28.244Z,1.73
2019-01-18T11:42:38.650Z,2.17
2019-01-18T11:45:42.983Z,2.27
2019-01-18T11:48:50.375Z,1.97
2019-01-18T11:51:52.640Z,2.27
2019-01-18T11:54:56.502Z,1.53
2019-01-18T11:58:00.466Z,1.70
2019-01-18T12:01:04.784Z,1.60
2019-01-18T12:04:08.821Z,1.63
2019-01-18T12:07:16.802Z,1.70
2019-01-18T12:10:24.880Z,1.73
2019-01-18T12:13:28.844Z,1.47
2019-01-18T12:16:32.724Z,2.37
2019-01-18T12:19:36.650Z,1.50
2019-01-18T12:22:40.586Z,1.40
2019-01-18T12:25:47.720Z,1.93
2019-01-18T12:28:51.631Z,2.20
2019-01-18T12:31:55.593Z,1.50
2019-01-18T12:34:59.519Z,1.80
2019-01-18T12:38:03.558Z,1.63
2019-01-18T12:41:07.578Z,2.10
2019-01-18T12:44:11.432Z,1.53
2019-01-18T12:47:15.347Z,1.57
2019-01-18T12:50:34.201Z,1.30
2019-01-18T12:53:38.123Z,1.80
2019-01-18T12:56:42.052Z,1.70
2019-01-18T12:59:46.023Z,1.30
2019-01-18T13:02:50.250Z,1.23
2019-01-18T13:05:54.900Z,1.50
2019-01-18T13:08:58.870Z,1.47
2019-01-18T13:12:05.029Z,2.50
2019-01-18T13:15:16.161Z,1.70
2019-01-18T13:18:20.048Z,1.67
2019-01-18T13:21:24.047Z,1.50
2019-01-18T13:24:29.956Z,1.27
2019-01-18T13:27:33.938Z,1.50
2019-01-18T13:30:39.177Z,1.90
2019-01-18T13:33:43.199Z,1.43
2019-01-18T13:36:47.250Z,2.17
2019-01-18T13:39:51.099Z,1.40
2019-01-18T13:42:55.030Z,2.30
2019-01-18T13:46:01.768Z,2.00
2019-01-18T13:49:09.316Z,1.77
2019-01-18T13:52:13.167Z,2.00
2019-01-18T13:55:19.887Z,1.50
2019-01-18T13:58:23.896Z,1.60
2019-01-18T14:01:28.297Z,1.87
2019-01-18T14:04:32.221Z,2.00
2019-01-18T14:07:37.455Z,1.67
2019-01-18T14:10:41.396Z,2.03
2019-01-18T14:13:45.305Z,1.70
2019-01-18T14:16:49.311Z,1.63
2019-01-18T14:19:53.314Z,1.80
2019-01-18T14:22:57.562Z,1.60
2019-01-18T14:26:01.541Z,2.53
2019-01-18T14:29:05.571Z,2.23
2019-01-18T14:32:10.548Z,2.00
2019-01-18T14:35:14.598Z,1.40
2019-01-18T14:38:24.941Z,1.50
2019-01-18T14:41:24.112Z,1.60
2019-01-18T14:44:27.988Z,1.87
2019-01-18T14:47:31.908Z,1.60
2019-01-18T14:50:35.944Z,1.30
2019-01-18T14:53:39.934Z,1.57
2019-01-18T14:56:43.915Z,1.63
2019-01-18T14:59:47.744Z,1.87
2019-01-18T15:02:53.802Z,1.50
2019-01-18T15:05:57.651Z,2.00
2019-01-18T15:09:01.602Z,1.90
2019-01-18T15:12:05.978Z,2.10
2019-01-18T15:15:12.137Z,1.63
2019-01-18T15:18:16.977Z,1.70
2019-01-18T15:21:20.918Z,1.90
2019-01-18T15:24:27.782Z,1.73
2019-01-18T15:27:31.718Z,2.03
2019-01-18T15:30:35.742Z,1.67
2019-01-18T15:33:39.692Z,1.73
2019-01-18T15:36:43.726Z,2.33
2019-01-18T15:39:47.725Z,2.07
2019-01-18T15:42:52.500Z,2.30
2019-01-18T15:45:56.497Z,2.00
2019-01-18T15:49:00.490Z,2.30
2019-01-18T15:52:04.663Z,2.00
2019-01-18T15:55:09.409Z,1.90
2019-01-18T15:58:13.650Z,2.03
2019-01-18T16:01:17.607Z,2.50
2019-01-18T16:04:21.614Z,2.10
2019-01-18T16:07:25.611Z,2.40
2019-01-18T16:10:32.731Z,2.33
2019-01-18T16:13:36.702Z,2.60
2019-01-18T16:17:03.932Z,2.23
2019-01-18T16:20:12.013Z,2.03
2019-01-18T16:23:16.048Z,2.23
2019-01-18T16:26:20.021Z,2.33
2019-01-18T16:29:26.806Z,3.00
2019-01-18T16:32:30.839Z,2.70
2019-01-18T16:35:34.856Z,2.70
2019-01-18T16:38:38.882Z,2.70
2019-01-18T16:41:45.971Z,2.57
2019-01-18T16:44:49.903Z,3.40
2019-01-18T16:47:53.977Z,3.43
2019-01-18T16:50:58.008Z,3.53
2019-01-18T16:54:02.058Z,2.97
2019-01-18T16:57:06.100Z,3.70
2019-01-18T17:00:33.448Z,3.13
2019-01-18T17:03:37.479Z,4.10
2019-01-18T17:06:41.398Z,3.97
2019-01-18T17:09:45.339Z,4.20
2019-01-18T17:12:49.345Z,3.10
2019-01-18T17:15:53.387Z,3.60
2019-01-18T17:18:59.758Z,3.33
2019-01-18T17:22:03.849Z,3.57
2019-01-18T17:25:07.907Z,3.33
2019-01-18T17:28:11.951Z,3.47
2019-01-18T17:31:15.871Z,3.10
2019-01-18T17:34:22.021Z,4.07
2019-01-18T17:37:30.808Z,3.20
2019-01-18T17:40:39.988Z,3.30
2019-01-18T17:44:08.376Z,3.10
2019-01-18T17:47:49.327Z,4.20
2019-01-18T17:51:43.490Z,3.70
2019-01-18T17:54:56.326Z,3.30
2019-01-18T17:58:36.880Z,4.13
2019-01-18T18:02:14.867Z,3.63
2019-01-18T18:05:54.884Z,3.60
2019-01-18T18:09:24.140Z,3.63
2019-01-18T18:13:02.907Z,3.33
2019-01-18T18:16:38.954Z,3.67
2019-01-18T18:20:22.699Z,3.80
2019-01-18T18:23:56.574Z,3.60
2019-01-18T18:27:50.055Z,3.30
2019-01-18T18:31:20.244Z,3.57
2019-01-18T18:34:52.258Z,3.87
2019-01-18T18:38:49.649Z,4.93
2019-01-18T18:42:37.677Z,4.00
2019-01-18T18:46:28.197Z,3.97
2019-01-18T18:50:19.490Z,4.63
2019-01-18T18:54:19.210Z,4.60
2019-01-18T18:57:54.601Z,5.03
2019-01-18T19:01:51.843Z,9.80
2019-01-18T19:05:33.388Z,4.70
2019-01-18T19:08:52.625Z,4.37
2019-01-18T19:12:23.413Z,5.30
2019-01-18T19:15:48.938Z,4.43
2019-01-18T19:19:33.149Z,3.90
2019-01-18T19:23:15.890Z,4.37
2019-01-18T19:27:07.050Z,3.87
2019-01-18T19:30:52.776Z,4.70
2019-01-18T19:34:51.656Z,4.60
2019-01-18T19:38:25.797Z,4.03
2019-01-18T19:42:00.666Z,4.40
2019-01-18T19:45:26.890Z,4.50
2019-01-18T19:49:17.757Z,3.40
2019-01-18T19:52:54.528Z,3.50
2019-01-18T19:56:11.420Z,3.70
2019-01-18T19:59:59.916Z,3.10
2019-01-18T20:03:29.052Z,3.10
2019-01-18T20:06:54.087Z,2.53
2019-01-18T20:10:37.002Z,3.07
2019-01-18T20:14:18.076Z,2.87
2019-01-18T20:17:42.085Z,2.10
2019-01-18T20:21:24.072Z,2.90
2019-01-18T20:25:24.655Z,2.20
2019-01-18T20:29:02.524Z,2.40
2019-01-18T20:32:37.551Z,2.33
2019-01-18T20:36:10.510Z,2.60
2019-01-18T20:40:03.547Z,2.47
2019-01-18T20:43:37.113Z,2.37
2019-01-18T20:47:25.175Z,2.07
2019-01-18T20:50:59.624Z,3.20
2019-01-18T20:54:47.864Z,3.73
2019-01-18T20:58:14.468Z,2.87
2019-01-18T21:01:50.345Z,3.50
2019-01-18T21:05:19.505Z,2.37
2019-01-18T21:08:53.707Z,2.50
2019-01-18T21:12:33.121Z,2.63
2019-01-18T21:16:08.088Z,2.50
2019-01-18T21:20:01.540Z,2.50
2019-01-18T21:23:44.547Z,2.60
2019-01-18T21:27:36.611Z,2.77
2019-01-18T21:30:57.875Z,2.73
2019-01-18T21:34:42.783Z,3.10
2019-01-18T21:38:11.301Z,3.70
2019-01-18T21:41:46.350Z,3.60
2019-01-18T21:45:34.815Z,3.13
2019-01-18T21:49:03.539Z,3.40
2019-01-18T21:52:53.333Z,3.77
2019-01-18T21:56:23.443Z,4.00
2019-01-18T21:59:53.357Z,4.50
2019-01-18T22:03:22.917Z,4.40
2019-01-18T22:07:02.551Z,5.00
2019-01-18T22:10:57.024Z,4.53
2019-01-18T22:14:51.390Z,4.60
2019-01-18T22:18:06.964Z,5.40
2019-01-18T22:21:50.363Z,5.80
2019-01-18T22:25:39.369Z,6.10
2019-01-18T22:29:20.054Z,5.60
2019-01-18T22:33:04.882Z,6.37
2019-01-18T22:36:52.113Z,5.37
2019-01-18T22:40:38.743Z,6.57
2019-01-18T22:44:22.367Z,6.73
2019-01-18T22:48:03.533Z,7.37
2019-01-18T22:51:32.439Z,7.67
2019-01-18T22:55:12.778Z,9.27
2019-01-18T22:59:09.948Z,9.70
2019-01-18T23:02:41.423Z,7.80
2019-01-18T23:06:28.662Z,8.87
2019-01-18T23:10:14.551Z,9.57
2019-01-18T23:14:05.575Z,7.47
2019-01-18T23:17:43.549Z,6.63
2019-01-18T23:21:04.526Z,5.93
2019-01-18T23:24:27.437Z,9.07
2019-01-18T23:28:07.899Z,7.67
2019-01-18T23:31:36.426Z,5.70
2019-01-18T23:35:13.959Z,5.60
2019-01-18T23:38:32.263Z,4.90
2019-01-18T23:41:56.775Z,4.57
2019-01-18T23:45:37.622Z,5.13
2019-01-18T23:49:35.117Z,4.83
2019-01-18T23:53:17.842Z,5.03
2019-01-18T23:56:55.189Z,4.63
